Time;durP1;ratioP1;P1;durP2;ratioP2;P2;SDS_P1;SDS_P2;PMS_P1;PMS_P2;Temp;Humidity;BMP_temperature;BMP_pressure;BME280_temperature;BME280_humidity;BME280_pressure;Samples;Min_cycle;Max_cycle;Signal;HPM_P1;HPM_P2
2020/12/28 00:01:31;;;;;;;0.70;0.70;;;7.80;98.40;;;;;;5053266;28;20178;-77
2020/12/28 00:03:57;;;;;;;1.20;0.93;;;7.90;98.30;;;;;;5052408;28;20202;-77
2020/12/28 00:06:22;;;;;;;1.87;0.87;;;7.90;98.10;;;;;;5066222;28;20272;-77
2020/12/28 00:08:49;;;;;;;1.47;1.37;;;7.90;97.90;;;;;;5064759;28;20187;-77
2020/12/28 00:11:18;;;;;;;2.23;1.50;;;8.00;97.90;;;;;;5063792;28;20766;-78
2020/12/28 00:13:45;;;;;;;1.77;1.70;;;8.00;97.80;;;;;;5061493;28;20195;-77
2020/12/28 00:16:12;;;;;;;1.17;1.00;;;8.00;97.80;;;;;;5064601;28;20190;-77
2020/12/28 00:18:38;;;;;;;4.40;0.73;;;8.00;97.10;;;;;;5048430;28;20789;-78
2020/12/28 00:21:04;;;;;;;1.33;1.00;;;8.10;97.30;;;;;;5054189;28;20233;-77
2020/12/28 00:23:29;;;;;;;0.87;0.87;;;8.10;97.30;;;;;;5068833;28;20262;-78
2020/12/28 00:25:55;;;;;;;1.10;1.10;;;8.20;97.20;;;;;;5058650;28;20175;-77
2020/12/28 00:28:21;;;;;;;0.60;0.60;;;8.20;97.10;;;;;;5052692;28;20193;-77
2020/12/28 00:30:46;;;;;;;0.77;0.77;;;8.20;96.40;;;;;;5061812;28;20286;-78
2020/12/28 00:33:12;;;;;;;1.10;0.67;;;8.30;96.30;;;;;;5039224;28;20187;-78
2020/12/28 00:35:38;;;;;;;1.60;0.83;;;8.30;96.20;;;;;;5031749;28;20171;-78
2020/12/28 00:38:03;;;;;;;1.07;0.67;;;8.40;95.20;;;;;;5028255;28;20196;-78
2020/12/28 00:40:29;;;;;;;0.73;0.73;;;8.40;95.80;;;;;;5056062;28;20996;-77
2020/12/28 00:42:55;;;;;;;1.00;1.00;;;8.40;95.90;;;;;;5054696;28;20183;-78
2020/12/28 00:45:20;;;;;;;1.00;1.00;;;8.40;96.20;;;;;;5031571;28;20584;-78
2020/12/28 00:47:46;;;;;;;1.00;0.80;;;8.40;95.70;;;;;;5062817;28;20217;-78
2020/12/28 00:50:12;;;;;;;1.40;1.40;;;8.40;95.70;;;;;;5053544;28;20253;-77
2020/12/28 00:52:37;;;;;;;1.13;1.07;;;8.30;96.00;;;;;;5048616;28;20267;-78
2020/12/28 00:55:03;;;;;;;1.37;1.20;;;8.30;96.10;;;;;;5034439;28;20210;-78
2020/12/28 00:57:29;;;;;;;1.53;1.43;;;8.30;96.30;;;;;;5055789;28;20172;-78
2020/12/28 00:59:56;;;;;;;1.60;1.53;;;8.30;96.00;;;;;;5028782;28;20682;-77
2020/12/28 01:02:22;;;;;;;2.03;1.93;;;8.30;96.10;;;;;;5058026;28;20312;-78
2020/12/28 01:04:49;;;;;;;1.37;1.27;;;8.20;96.30;;;;;;5069502;28;20183;-77
2020/12/28 01:07:15;;;;;;;2.47;1.47;;;8.20;96.40;;;;;;5057702;28;20667;-77
2020/12/28 01:09:40;;;;;;;1.67;1.53;;;8.20;96.50;;;;;;5050877;28;20171;-77
2020/12/28 01:12:06;;;;;;;2.23;2.03;;;8.20;96.40;;;;;;5069435;28;20256;-77
2020/12/28 01:14:32;;;;;;;2.77;2.03;;;8.20;96.50;;;;;;5068169;28;20666;-78
2020/12/28 01:16:57;;;;;;;2.10;2.00;;;8.20;96.50;;;;;;5062716;28;20182;-77
2020/12/28 01:19:23;;;;;;;2.17;2.00;;;8.20;96.40;;;;;;5047638;28;20179;-77
2020/12/28 01:21:49;;;;;;;2.87;2.67;;;8.20;96.50;;;;;;5059491;28;20668;-78
2020/12/28 01:24:14;;;;;;;2.73;2.60;;;8.20;96.50;;;;;;5031369;28;20187;-77
2020/12/28 01:26:42;;;;;;;3.47;2.97;;;8.20;96.60;;;;;;5049253;28;20199;-77
2020/12/28 01:29:09;;;;;;;3.37;3.13;;;8.20;96.60;;;;;;5051220;28;20213;-77
2020/12/28 01:31:34;;;;;;;3.33;2.80;;;8.20;96.70;;;;;;5035856;28;20707;-77
2020/12/28 01:34:00;;;;;;;3.20;3.00;;;8.20;96.80;;;;;;5069226;28;20181;-76
2020/12/28 01:36:27;;;;;;;5.13;3.53;;;8.10;96.90;;;;;;5064385;28;20171;-77
2020/12/28 01:38:53;;;;;;;3.57;3.23;;;8.10;97.10;;;;;;5050496;28;20175;-77
2020/12/28 01:41:19;;;;;;;3.07;2.87;;;8.10;97.00;;;;;;5064590;28;20720;-77
2020/12/28 01:43:44;;;;;;;3.57;3.37;;;8.10;97.00;;;;;;5050062;28;20186;-77
2020/12/28 01:46:12;;;;;;;6.67;3.97;;;8.10;97.10;;;;;;5065224;28;20257;-77
2020/12/28 01:48:38;;;;;;;3.50;3.20;;;8.10;97.20;;;;;;5049374;28;20206;-78
2020/12/28 01:51:04;;;;;;;3.37;3.10;;;8.00;97.40;;;;;;5060416;28;20198;-77
2020/12/28 01:53:30;;;;;;;3.07;2.87;;;8.00;97.50;;;;;;5069747;28;20533;-77
2020/12/28 01:56:02;;;;;;;3.93;3.60;;;7.90;97.80;;;;;;5068355;28;20684;-77
2020/12/28 01:58:29;;;;;;;5.67;3.60;;;7.90;97.80;;;;;;5066077;28;20159;-77
2020/12/28 02:00:56;;;;;;;4.43;4.07;;;8.00;97.90;;;;;;5050175;28;20195;-77
2020/12/28 02:03:22;;;;;;;3.40;3.00;;;8.00;97.80;;;;;;5064650;28;20179;-77
2020/12/28 02:05:49;;;;;;;3.77;3.50;;;8.00;97.80;;;;;;5069054;28;20211;-77
2020/12/28 02:08:16;;;;;;;3.50;3.20;;;7.90;98.20;;;;;;5067391;28;20226;-77
2020/12/28 02:10:42;;;;;;;2.60;2.47;;;7.90;98.30;;;;;;5047517;28;20207;-78
2020/12/28 02:13:07;;;;;;;4.23;3.40;;;7.90;98.10;;;;;;5033390;28;20183;-77
2020/12/28 02:15:33;;;;;;;3.23;2.90;;;7.90;98.00;;;;;;5030604;28;20523;-77
2020/12/28 02:17:59;;;;;;;2.47;2.30;;;7.90;97.90;;;;;;5041057;28;20239;-77
2020/12/28 02:20:25;;;;;;;4.73;3.33;;;7.90;98.00;;;;;;5049033;28;20187;-77
2020/12/28 02:22:50;;;;;;;2.93;2.63;;;7.90;98.30;;;;;;5046888;28;20175;-77
2020/12/28 02:25:16;;;;;;;3.53;3.20;;;7.90;98.40;;;;;;5042235;28;20194;-76
2020/12/28 02:27:42;;;;;;;3.77;3.47;;;7.90;98.20;;;;;;5053015;28;20186;-76
2020/12/28 02:30:08;;;;;;;3.63;3.10;;;8.00;98.30;;;;;;5042024;28;20233;-77
2020/12/28 02:32:34;;;;;;;2.57;2.30;;;7.90;98.40;;;;;;5052071;28;20182;-77
2020/12/28 02:35:00;;;;;;;2.90;2.63;;;7.80;98.40;;;;;;5052450;28;20182;-77
2020/12/28 02:37:25;;;;;;;2.70;2.50;;;7.90;98.20;;;;;;5056400;28;20181;-78
2020/12/28 02:39:51;;;;;;;3.43;3.13;;;7.90;98.10;;;;;;5069730;28;20217;-78
2020/12/28 02:42:17;;;;;;;3.63;3.10;;;7.90;98.10;;;;;;5070300;28;20190;-78
2020/12/28 02:44:42;;;;;;;4.40;3.17;;;7.90;98.10;;;;;;5072112;28;20714;-78
2020/12/28 02:47:08;;;;;;;3.57;3.07;;;7.90;98.10;;;;;;5062617;28;20696;-78
2020/12/28 02:49:34;;;;;;;2.73;2.53;;;7.80;98.20;;;;;;5052035;28;20176;-78
2020/12/28 02:51:59;;;;;;;3.47;2.90;;;7.70;98.50;;;;;;5061621;28;20226;-78
2020/12/28 02:54:25;;;;;;;3.17;2.83;;;7.70;98.50;;;;;;5051342;28;20178;-78
2020/12/28 02:56:51;;;;;;;2.60;2.40;;;7.70;98.50;;;;;;5040292;28;20175;-78
2020/12/28 02:59:16;;;;;;;3.97;2.83;;;7.70;98.50;;;;;;5071306;28;20748;-76
2020/12/28 03:01:42;;;;;;;3.03;2.83;;;7.80;98.50;;;;;;5057189;28;20195;-77
2020/12/28 03:04:08;;;;;;;7.30;2.57;;;7.80;98.40;;;;;;5051301;28;20175;-77
2020/12/28 03:06:33;;;;;;;5.83;3.03;;;7.80;98.40;;;;;;5061214;28;20253;-77
2020/12/28 03:08:59;;;;;;;3.23;2.93;;;7.80;98.50;;;;;;5061233;28;20274;-77
2020/12/28 03:11:25;;;;;;;3.80;3.33;;;7.80;98.40;;;;;;5058086;28;20661;-77
2020/12/28 03:13:50;;;;;;;4.80;3.50;;;7.90;98.30;;;;;;5044159;28;20258;-77
2020/12/28 03:16:16;;;;;;;3.77;3.40;;;7.90;98.20;;;;;;5063981;28;20175;-77
2020/12/28 03:18:42;;;;;;;3.47;3.17;;;7.90;98.40;;;;;;5071237;28;20183;-77
2020/12/28 03:21:08;;;;;;;4.40;3.70;;;7.80;98.50;;;;;;5069941;28;20636;-77
2020/12/28 03:23:33;;;;;;;2.70;2.50;;;7.80;98.50;;;;;;5045167;28;20182;-77
2020/12/28 03:25:59;;;;;;;3.47;3.20;;;7.80;98.50;;;;;;5068500;28;20559;-77
2020/12/28 03:28:25;;;;;;;4.97;3.40;;;7.80;98.40;;;;;;5071429;28;20667;-77
2020/12/28 03:30:50;;;;;;;5.47;4.00;;;7.80;98.50;;;;;;5068737;28;20260;-78
2020/12/28 03:33:16;;;;;;;4.17;3.67;;;7.60;98.50;;;;;;5046955;28;20195;-77
2020/12/28 03:35:43;;;;;;;3.70;3.40;;;7.60;98.50;;;;;;5048589;28;20204;-77
2020/12/28 03:38:09;;;;;;;3.90;3.27;;;7.60;98.50;;;;;;5053882;28;20267;-78
2020/12/28 03:40:35;;;;;;;3.67;3.37;;;7.60;98.50;;;;;;5052200;28;20267;-78
2020/12/28 03:43:00;;;;;;;3.10;2.90;;;7.60;98.50;;;;;;5063854;28;20278;-78
2020/12/28 03:45:26;;;;;;;3.47;3.20;;;7.70;98.50;;;;;;5032180;28;20183;-78
2020/12/28 03:47:52;;;;;;;4.00;3.27;;;7.70;98.50;;;;;;5060430;28;20187;-78
2020/12/28 03:50:18;;;;;;;5.00;3.00;;;7.70;98.50;;;;;;5067842;28;20660;-78
2020/12/28 03:52:43;;;;;;;4.87;3.37;;;7.70;98.40;;;;;;5064654;28;20189;-78
2020/12/28 03:55:09;;;;;;;3.37;3.17;;;7.70;98.50;;;;;;5068560;28;20608;-78
2020/12/28 03:57:35;;;;;;;4.07;3.23;;;7.70;98.50;;;;;;5068743;28;20175;-78
2020/12/28 04:00:01;;;;;;;3.70;3.40;;;7.60;98.50;;;;;;5052460;28;20182;-78
2020/12/28 04:02:27;;;;;;;3.10;3.00;;;7.70;98.40;;;;;;5050634;28;20663;-79
2020/12/28 04:04:52;;;;;;;3.20;2.93;;;7.60;98.30;;;;;;5058685;28;20187;-78
2020/12/28 04:07:18;;;;;;;5.37;3.13;;;7.60;98.20;;;;;;5043460;28;20195;-77
2020/12/28 04:09:44;;;;;;;4.27;3.30;;;7.60;98.20;;;;;;5070128;28;20576;-77
2020/12/28 04:12:10;;;;;;;3.47;3.17;;;7.60;98.50;;;;;;5054908;28;20285;-78
2020/12/28 04:14:35;;;;;;;4.10;3.37;;;7.60;98.50;;;;;;5033846;28;20210;-77
2020/12/28 04:17:01;;;;;;;3.40;3.07;;;7.60;98.50;;;;;;5049953;28;20170;-76
2020/12/28 04:19:27;;;;;;;6.80;3.30;;;7.50;98.50;;;;;;5050467;28;20917;-76
2020/12/28 04:21:52;;;;;;;3.77;3.40;;;7.50;98.50;;;;;;5059561;28;20290;-77
2020/12/28 04:24:18;;;;;;;3.13;2.80;;;7.40;98.50;;;;;;5031728;28;20179;-77
2020/12/28 04:26:44;;;;;;;5.00;3.53;;;7.50;98.50;;;;;;5033090;28;20179;-76
2020/12/28 04:29:11;;;;;;;3.40;3.20;;;7.50;98.50;;;;;;5049703;28;20653;-76
2020/12/28 04:31:37;;;;;;;4.80;3.50;;;7.50;98.50;;;;;;5065227;28;20576;-77
2020/12/28 04:34:04;;;;;;;2.70;2.50;;;7.50;98.50;;;;;;5070327;28;20182;-77
2020/12/28 04:36:30;;;;;;;3.60;3.30;;;7.60;98.50;;;;;;5051270;28;20175;-77
2020/12/28 04:38:56;;;;;;;3.20;2.87;;;7.50;98.50;;;;;;5047648;28;20183;-77
2020/12/28 04:41:22;;;;;;;3.10;2.80;;;7.60;98.30;;;;;;5051059;28;20411;-77
2020/12/28 04:43:48;;;;;;;3.10;2.70;;;7.60;98.40;;;;;;5060961;28;20652;-77
2020/12/28 04:46:14;;;;;;;2.83;2.63;;;7.60;98.40;;;;;;5058354;28;20175;-77
2020/12/28 04:48:40;;;;;;;2.50;2.30;;;7.60;98.40;;;;;;5061546;28;20245;-76
2020/12/28 04:51:06;;;;;;;2.97;2.77;;;7.60;98.50;;;;;;5042762;28;20199;-75
2020/12/28 04:53:34;;;;;;;4.40;3.00;;;7.50;98.40;;;;;;5053660;28;21037;-76
2020/12/28 04:56:00;;;;;;;3.73;3.07;;;7.50;98.40;;;;;;5048707;28;20552;-76
2020/12/28 04:58:26;;;;;;;4.10;3.17;;;7.50;98.40;;;;;;5048192;28;20217;-76
2020/12/28 05:01:02;;;;;;;2.97;2.77;;;7.50;98.40;;;;;;5043678;28;20721;-76
2020/12/28 05:03:28;;;;;;;2.90;2.70;;;7.50;98.30;;;;;;5032452;28;20661;-76
2020/12/28 05:05:54;;;;;;;2.40;2.30;;;7.50;98.20;;;;;;5069090;28;20182;-76
2020/12/28 05:08:20;;;;;;;2.20;2.10;;;7.60;98.10;;;;;;5057322;28;20688;-77
2020/12/28 05:10:46;;;;;;;3.17;2.77;;;7.60;98.00;;;;;;5059980;28;20204;-76
2020/12/28 05:13:14;;;;;;;3.03;2.83;;;7.60;98.00;;;;;;5059378;28;20266;-76
2020/12/28 05:15:50;;;;;;;2.33;2.13;;;7.60;97.80;;;;;;5063725;28;20210;-77
2020/12/28 05:18:18;;;;;;;2.27;2.17;;;7.60;97.80;;;;;;5049330;28;20167;-76
2020/12/28 05:20:48;;;;;;;2.67;2.47;;;7.60;98.00;;;;;;5049299;28;20691;-76
2020/12/28 05:23:15;;;;;;;3.20;3.00;;;7.70;98.00;;;;;;5049099;28;20190;-78
2020/12/28 05:25:50;;;;;;;2.83;2.67;;;7.70;98.00;;;;;;5064397;28;20183;-77
2020/12/28 05:28:21;;;;;;;2.67;2.57;;;7.70;98.10;;;;;;5064469;28;20167;-77
2020/12/28 05:30:49;;;;;;;3.00;2.67;;;7.70;98.00;;;;;;5047248;28;20287;-77
2020/12/28 05:33:15;;;;;;;4.47;2.83;;;7.70;98.00;;;;;;5047949;28;21004;-77
2020/12/28 05:35:41;;;;;;;3.80;3.03;;;7.70;98.00;;;;;;5054470;28;20990;-77
2020/12/28 05:38:09;;;;;;;2.37;2.27;;;7.70;97.60;;;;;;5066283;28;20254;-77
2020/12/28 05:40:36;;;;;;;3.03;2.50;;;7.70;97.40;;;;;;5044724;28;20187;-77
2020/12/28 05:43:02;;;;;;;2.50;2.40;;;7.80;97.10;;;;;;5059455;28;20206;-77
2020/12/28 05:45:27;;;;;;;2.20;2.07;;;7.70;97.00;;;;;;5069114;28;20668;-77
2020/12/28 05:47:57;;;;;;;3.67;2.37;;;7.80;97.00;;;;;;5065279;28;20325;-77
2020/12/28 05:50:25;;;;;;;2.80;2.60;;;7.80;97.00;;;;;;5068854;28;20210;-77
2020/12/28 05:52:56;;;;;;;2.47;2.27;;;7.80;97.00;;;;;;5054734;28;20175;-77
2020/12/28 05:55:24;;;;;;;2.60;2.40;;;7.80;96.90;;;;;;5065365;28;20209;-78
2020/12/28 05:57:50;;;;;;;2.50;2.40;;;7.80;96.90;;;;;;5068121;28;20761;-77
2020/12/28 06:00:17;;;;;;;3.30;3.00;;;7.80;96.90;;;;;;5046176;28;20182;-77
2020/12/28 06:02:43;;;;;;;2.53;2.33;;;7.80;97.00;;;;;;5048517;28;20175;-76
2020/12/28 06:05:11;;;;;;;2.07;1.97;;;7.80;97.00;;;;;;5061716;28;20185;-77
2020/12/28 06:07:37;;;;;;;3.50;2.60;;;7.90;96.80;;;;;;5067558;28;20273;-77
2020/12/28 06:10:04;;;;;;;2.60;2.43;;;7.90;96.30;;;;;;5053922;28;20264;-78
2020/12/28 06:12:30;;;;;;;2.70;2.50;;;7.80;96.80;;;;;;5072809;28;20198;-78
2020/12/28 06:14:56;;;;;;;2.83;2.63;;;7.80;97.00;;;;;;5071384;28;20177;-76
2020/12/28 06:17:33;;;;;;;2.53;2.43;;;7.90;97.10;;;;;;5071955;28;20178;-78
2020/12/28 06:20:04;;;;;;;2.37;2.17;;;7.90;96.80;;;;;;5044013;28;21028;-80
2020/12/28 06:22:29;;;;;;;4.57;2.03;;;7.90;97.00;;;;;;5060871;28;20178;-77
2020/12/28 06:25:25;;;;;;;2.53;2.33;;;8.00;97.10;;;;;;5050779;28;20183;-82
2020/12/28 06:27:50;;;;;;;2.40;1.87;;;8.00;96.90;;;;;;4971286;28;20693;-82
2020/12/28 06:30:20;;;;;;;2.17;1.97;;;8.00;97.10;;;;;;4954284;28;20221;-82
2020/12/28 06:33:06;;;;;;;3.57;2.80;;;8.10;97.00;;;;;;4970968;28;20190;-83
2020/12/28 06:35:32;;;;;;;4.03;2.73;;;8.10;96.50;;;;;;4971894;28;20284;-78
2020/12/28 06:38:02;;;;;;;3.33;3.03;;;8.20;96.20;;;;;;4980759;28;20326;-77
2020/12/28 06:40:30;;;;;;;2.70;2.53;;;8.20;96.10;;;;;;4969845;28;20188;-79
2020/12/28 06:43:13;;;;;;;2.77;2.50;;;8.30;96.00;;;;;;4965761;28;20187;-79
2020/12/28 06:45:40;;;;;;;2.83;2.53;;;8.30;95.00;;;;;;4935871;28;20194;-78
2020/12/28 06:48:25;;;;;;;2.80;2.60;;;8.40;95.90;;;;;;4970044;28;20182;-78
2020/12/28 06:50:53;;;;;;;2.53;2.33;;;8.50;95.30;;;;;;4983061;28;20205;-78
2020/12/28 06:53:25;;;;;;;2.40;2.30;;;8.50;95.00;;;;;;4974951;28;20192;-78
2020/12/28 06:55:51;;;;;;;2.97;2.43;;;8.40;94.20;;;;;;4991875;28;20178;-78
2020/12/28 06:58:17;;;;;;;2.70;2.50;;;8.50;95.00;;;;;;4991997;28;20914;-77
2020/12/28 07:00:43;;;;;;;3.13;2.60;;;8.50;95.50;;;;;;4976214;28;20182;-78
2020/12/28 07:03:16;;;;;;;2.30;2.20;;;8.60;95.50;;;;;;4984800;28;20248;-77
2020/12/28 07:05:43;;;;;;;2.67;2.47;;;8.60;95.30;;;;;;5056474;28;20183;-78
2020/12/28 07:08:09;;;;;;;2.60;2.40;;;8.70;95.50;;;;;;5072928;28;20191;-78
2020/12/28 07:10:36;;;;;;;2.50;2.40;;;8.80;95.80;;;;;;5071954;28;20206;-78
2020/12/28 07:13:06;;;;;;;3.05;2.85;;;8.90;95.80;;;;;;5065392;28;20219;-77
2020/12/28 07:15:33;;;;;;;8.97;4.47;;;9.00;95.10;;;;;;5053626;28;20255;-78
2020/12/28 07:18:05;;;;;;;6.20;4.27;;;8.90;93.40;;;;;;5063264;28;20174;-77
2020/12/28 07:20:31;;;;;;;4.47;4.13;;;8.80;94.00;;;;;;5075007;28;20175;-76
2020/12/28 07:22:57;;;;;;;9.47;4.97;;;8.80;94.10;;;;;;5072467;28;20368;-77
2020/12/28 07:25:22;;;;;;;5.27;4.87;;;8.80;94.50;;;;;;5065635;28;20725;-79
2020/12/28 07:27:48;;;;;;;5.53;4.70;;;8.70;94.70;;;;;;5052948;28;20176;-78
2020/12/28 07:30:14;;;;;;;4.60;4.20;;;8.70;94.80;;;;;;5052884;28;21018;-77
2020/12/28 07:32:40;;;;;;;7.07;4.10;;;8.80;94.50;;;;;;5052719;28;20925;-77
2020/12/28 07:35:07;;;;;;;4.23;3.83;;;8.70;94.30;;;;;;5053698;28;20199;-77
2020/12/28 07:37:41;;;;;;;5.80;5.20;;;8.70;94.00;;;;;;5073124;28;20827;-78
2020/12/28 07:40:08;;;;;;;6.90;4.93;;;8.70;94.00;;;;;;5063061;28;20185;-77
2020/12/28 07:42:34;;;;;;;7.00;5.50;;;8.70;94.30;;;;;;5072719;28;20167;-78
2020/12/28 07:45:02;;;;;;;5.27;4.77;;;8.70;94.40;;;;;;5072729;28;20702;-77
2020/12/28 07:47:56;;;;;;;4.03;3.63;;;8.70;94.30;;;;;;5072446;28;20182;-77
2020/12/28 07:50:24;;;;;;;4.43;4.03;;;8.50;93.90;;;;;;5056612;28;20240;-78
2020/12/28 07:53:14;;;;;;;3.43;3.17;;;8.40;94.00;;;;;;5073276;28;20167;-77
2020/12/28 07:55:48;;;;;;;9.23;4.13;;;8.50;94.60;;;;;;5071143;28;20167;-78
2020/12/28 07:58:33;;;;;;;4.93;4.53;;;8.40;94.70;;;;;;5066210;28;20218;-77
2020/12/28 08:01:08;;;;;;;3.93;3.73;;;8.50;95.00;;;;;;4970887;28;20205;-76
2020/12/28 08:03:46;;;;;;;3.83;3.47;;;8.60;94.90;;;;;;4972885;28;20197;-77
2020/12/28 08:06:15;;;;;;;3.28;2.95;;;8.70;94.70;;;;;;4970642;28;20223;-77
2020/12/28 08:08:40;;;;;;;2.88;2.75;;;8.80;94.60;;;;;;4971269;28;20228;-78
2020/12/28 08:11:06;;;;;;;3.92;2.88;;;8.70;93.90;;;;;;4972865;28;20205;-78
2020/12/28 08:13:36;;;;;;;3.55;3.25;;;8.80;94.10;;;;;;4969950;28;20190;-78
2020/12/28 08:16:13;;;;;;;4.30;4.00;;;8.80;94.10;;;;;;5009541;28;20546;-77
2020/12/28 08:18:55;;;;;;;4.50;4.17;;;8.80;94.50;;;;;;4996389;28;20278;-78
2020/12/28 08:21:23;;;;;;;3.88;3.58;;;8.90;93.80;;;;;;4992507;28;20686;-77
2020/12/28 08:23:57;;;;;;;4.33;3.97;;;9.00;93.30;;;;;;4989600;28;20186;-76
2020/12/28 08:26:28;;;;;;;4.63;3.73;;;9.10;93.90;;;;;;4987832;28;20268;-76
2020/12/28 08:28:59;;;;;;;3.88;3.58;;;9.40;94.70;;;;;;4976373;28;20190;-77
2020/12/28 08:31:30;;;;;;;4.82;3.63;;;10.00;95.60;;;;;;4951763;28;20300;-77
2020/12/28 08:34:02;;;;;;;4.25;3.88;;;10.50;94.10;;;;;;4970140;28;20218;-79
2020/12/28 08:36:29;;;;;;;3.28;3.08;;;11.20;90.40;;;;;;4983529;28;20194;-77
2020/12/28 08:38:54;;;;;;;4.75;4.28;;;11.90;88.50;;;;;;5043126;28;20248;-76
2020/12/28 08:41:20;;;;;;;5.28;4.68;;;12.30;87.60;;;;;;5061836;28;20183;-76
2020/12/28 08:43:49;;;;;;;4.30;4.00;;;12.70;87.80;;;;;;5045955;28;20259;-77
2020/12/28 08:46:21;;;;;;;4.18;3.90;;;13.30;86.00;;;;;;5052341;28;20163;-78
2020/12/28 08:48:48;;;;;;;7.35;5.78;;;13.70;84.80;;;;;;5053174;28;20238;-78
2020/12/28 08:51:18;;;;;;;6.65;5.20;;;14.10;83.70;;;;;;5038635;28;20199;-79
2020/12/28 08:53:51;;;;;;;7.93;5.82;;;14.50;83.20;;;;;;5042533;28;20615;-78
2020/12/28 08:56:18;;;;;;;6.30;5.68;;;14.70;81.30;;;;;;5071827;28;20171;-78
2020/12/28 08:58:44;;;;;;;6.20;5.75;;;14.70;81.60;;;;;;5053638;28;20210;-78
2020/12/28 09:01:10;;;;;;;5.57;5.15;;;14.90;81.30;;;;;;5067830;28;20209;-78
2020/12/28 09:03:37;;;;;;;7.78;5.47;;;15.20;80.70;;;;;;5069035;28;20179;-79
2020/12/28 09:06:07;;;;;;;5.95;5.38;;;15.60;80.50;;;;;;5071023;28;20236;-79
2020/12/28 09:08:33;;;;;;;7.93;5.60;;;16.00;80.30;;;;;;5069461;28;20958;-78
2020/12/28 09:10:59;;;;;;;6.85;6.07;;;16.60;78.00;;;;;;5070271;28;20195;-79
2020/12/28 09:13:25;;;;;;;6.97;6.15;;;17.40;76.70;;;;;;5051500;28;20215;-80
2020/12/28 09:15:51;;;;;;;4.53;4.07;;;18.00;76.10;;;;;;5049092;28;20175;-78
2020/12/28 09:18:17;;;;;;;0.85;0.85;;;18.40;72.60;;;;;;5068928;28;20215;-79
2020/12/28 09:20:43;;;;;;;2.95;2.75;;;18.30;63.60;;;;;;5064501;28;20183;-77
2020/12/28 09:23:08;;;;;;;3.15;2.92;;;18.10;67.70;;;;;;5052836;28;20640;-78
2020/12/28 09:25:34;;;;;;;3.67;3.38;;;17.90;69.00;;;;;;5054002;28;20211;-76
2020/12/28 09:28:00;;;;;;;3.53;3.33;;;17.70;71.70;;;;;;5056891;28;20583;-78
2020/12/28 09:30:26;;;;;;;3.72;3.15;;;17.70;72.40;;;;;;5052332;28;20175;-77
2020/12/28 09:32:51;;;;;;;3.13;3.03;;;17.50;73.00;;;;;;5059894;28;20723;-76
2020/12/28 09:35:20;;;;;;;3.97;3.63;;;17.30;72.80;;;;;;5067156;28;20242;-78
2020/12/28 09:37:46;;;;;;;3.67;3.38;;;17.20;72.00;;;;;;5050727;28;20949;-77
2020/12/28 09:40:12;;;;;;;1.25;1.23;;;16.90;70.80;;;;;;5044026;28;20196;-76
2020/12/28 09:42:38;;;;;;;1.90;1.75;;;16.10;65.70;;;;;;5057168;28;20564;-79
2020/12/28 09:45:35;;;;;;;1.17;0.95;;;15.80;69.70;;;;;;5058896;28;20262;-77
2020/12/28 09:47:50;;;;;;;0.40;0.40;;;15.10;65.00;;;;;;5056087;28;20197;-76
2020/12/28 09:50:16;;;;;;;0.82;0.82;;;14.50;63.50;;;;;;5060353;28;20179;-74
2020/12/28 09:52:42;;;;;;;0.68;0.68;;;13.90;66.50;;;;;;5048641;28;20250;-75
2020/12/28 09:55:07;;;;;;;1.02;0.75;;;13.50;66.30;;;;;;5063392;28;20998;-74
2020/12/28 09:57:33;;;;;;;0.50;0.50;;;13.50;69.00;;;;;;5044726;28;20186;-75
2020/12/28 09:59:59;;;;;;;0.63;0.60;;;13.80;65.60;;;;;;5046863;28;20205;-78
2020/12/28 10:02:24;;;;;;;0.45;0.40;;;13.80;64.90;;;;;;5060617;28;20576;-86
2020/12/28 10:04:50;;;;;;;0.60;0.60;;;13.70;68.40;;;;;;5039270;28;20185;-88
2020/12/28 10:07:16;;;;;;;0.70;0.70;;;13.70;70.70;;;;;;5051361;28;20187;-83
2020/12/28 10:09:42;;;;;;;1.77;1.67;;;14.10;70.20;;;;;;5063624;28;20272;-85
2020/12/28 10:12:07;;;;;;;5.28;1.88;;;14.90;71.00;;;;;;5065696;28;21082;-79
2020/12/28 10:14:33;;;;;;;2.58;1.83;;;15.90;70.30;;;;;;5051523;28;20250;-80
2020/12/28 10:16:58;;;;;;;1.42;1.42;;;16.90;68.60;;;;;;5033249;28;20648;-83
2020/12/28 10:19:24;;;;;;;1.50;1.50;;;17.70;67.90;;;;;;5054951;28;20254;-80
2020/12/28 10:21:50;;;;;;;2.10;2.00;;;18.40;67.40;;;;;;5057061;28;20257;-81
2020/12/28 10:24:15;;;;;;;1.17;1.17;;;19.00;64.90;;;;;;5050474;28;20254;-79
2020/12/28 10:26:41;;;;;;;1.42;1.33;;;19.60;64.50;;;;;;5049256;28;20211;-82
2020/12/28 10:29:07;;;;;;;1.15;1.15;;;20.20;62.80;;;;;;5031349;28;20179;-80
2020/12/28 10:31:32;;;;;;;2.30;0.88;;;20.50;61.60;;;;;;5050190;28;20253;-79
2020/12/28 10:33:58;;;;;;;0.88;0.88;;;20.80;61.10;;;;;;5046949;28;20290;-79
2020/12/28 10:36:26;;;;;;;2.08;1.77;;;21.30;56.60;;;;;;5070736;28;20179;-79
2020/12/28 10:38:53;;;;;;;1.27;1.27;;;21.40;57.00;;;;;;5062142;28;20191;-78
2020/12/28 10:41:27;;;;;;;0.30;0.30;;;21.30;59.10;;;;;;5048416;28;20941;-79
2020/12/28 10:43:53;;;;;;;0.10;0.10;;;21.30;52.10;;;;;;5051794;28;20596;-79
2020/12/28 10:46:18;;;;;;;1.35;0.20;;;21.30;52.40;;;;;;5050356;28;20218;-81
2020/12/28 10:48:44;;;;;;;0.10;0.10;;;21.60;52.30;;;;;;5067435;28;20630;-80
2020/12/28 10:51:11;;;;;;;0.70;0.20;;;21.60;54.00;;;;;;5055529;28;20234;-80
2020/12/28 10:53:37;;;;;;;0.20;0.20;;;22.00;56.80;;;;;;5073053;28;20182;-82
2020/12/28 10:56:03;;;;;;;0.10;0.10;;;22.10;52.10;;;;;;5070889;28;20210;-78
2020/12/28 10:58:29;;;;;;;0.10;0.10;;;21.70;52.20;;;;;;5044957;28;20323;-78
2020/12/28 11:00:55;;;;;;;0.28;0.20;;;20.90;53.30;;;;;;5065928;28;20191;-80
2020/12/28 11:03:20;;;;;;;0.75;0.20;;;20.60;52.70;;;;;;5064353;28;20610;-78
2020/12/28 11:05:46;;;;;;;0.20;0.20;;;20.30;53.80;;;;;;5058073;28;20195;-76
2020/12/28 11:08:12;;;;;;;0.65;0.30;;;20.00;51.70;;;;;;5039461;28;20285;-75
2020/12/28 11:10:39;;;;;;;0.30;0.30;;;19.50;52.10;;;;;;5061902;28;20179;-76
2020/12/28 11:13:05;;;;;;;0.10;0.10;;;19.20;54.20;;;;;;5059410;28;20627;-76
2020/12/28 11:15:30;;;;;;;0.25;0.25;;;19.20;52.90;;;;;;5081755;28;20187;-77
2020/12/28 11:17:56;;;;;;;0.20;0.20;;;19.10;51.10;;;;;;5061467;28;20257;-76
2020/12/28 11:20:22;;;;;;;0.10;0.10;;;18.90;52.70;;;;;;5056302;28;20881;-76
2020/12/28 11:22:48;;;;;;;0.20;0.20;;;18.70;52.20;;;;;;5052698;28;20218;-76
2020/12/28 11:25:17;;;;;;;0.52;0.10;;;18.60;52.10;;;;;;5055689;28;20179;-74
2020/12/28 11:27:43;;;;;;;0.65;0.10;;;18.20;53.00;;;;;;5048509;28;20188;-73
2020/12/28 11:30:10;;;;;;;0.20;0.10;;;17.80;53.60;;;;;;5051348;28;20271;-74
2020/12/28 11:32:36;;;;;;;0.20;0.20;;;17.70;53.40;;;;;;5048448;28;20207;-74
2020/12/28 11:35:03;;;;;;;0.10;0.10;;;17.50;53.80;;;;;;5056538;28;20191;-75
2020/12/28 11:37:31;;;;;;;0.13;0.13;;;17.60;55.60;;;;;;5039372;28;20256;-74
2020/12/28 11:39:56;;;;;;;0.93;0.17;;;17.90;56.20;;;;;;5060589;28;20191;-75
2020/12/28 11:42:22;;;;;;;0.10;0.10;;;18.10;54.70;;;;;;5065194;28;20201;-75
2020/12/28 11:44:48;;;;;;;1.38;0.20;;;18.40;52.10;;;;;;5086624;28;20545;-75
2020/12/28 11:47:13;;;;;;;0.25;0.10;;;18.50;53.60;;;;;;5070136;28;20577;-74
2020/12/28 11:49:39;;;;;;;0.10;0.10;;;18.80;53.50;;;;;;5059632;28;20198;-74
2020/12/28 11:52:05;;;;;;;0.10;0.10;;;19.00;51.70;;;;;;5065663;28;20210;-74
2020/12/28 11:54:30;;;;;;;0.10;0.10;;;18.70;52.20;;;;;;5056204;28;20188;-75
2020/12/28 11:56:56;;;;;;;0.10;0.10;;;18.60;52.70;;;;;;5055049;28;20647;-75
2020/12/28 11:59:22;;;;;;;1.75;0.25;;;18.70;53.60;;;;;;5050070;28;20179;-74
2020/12/28 12:01:48;;;;;;;1.10;0.20;;;18.90;54.40;;;;;;5063124;28;20266;-75
2020/12/28 12:04:15;;;;;;;0.20;0.20;;;18.80;52.70;;;;;;5048344;28;20183;-74
2020/12/28 12:06:41;;;;;;;0.20;0.20;;;18.80;53.70;;;;;;5061757;28;20262;-75
2020/12/28 12:09:14;;;;;;;0.20;0.20;;;18.60;53.00;;;;;;5058492;28;20207;-75
2020/12/28 12:11:47;;;;;;;0.10;0.10;;;18.50;52.90;;;;;;5058611;28;20722;-74
2020/12/28 12:14:15;;;;;;;0.50;0.30;;;18.20;53.10;;;;;;5062675;28;20702;-75
2020/12/28 12:16:41;;;;;;;0.20;0.20;;;17.60;53.70;;;;;;5057796;28;20185;-75
2020/12/28 12:19:07;;;;;;;0.20;0.20;;;16.90;56.50;;;;;;5060961;28;20186;-75
2020/12/28 12:21:33;;;;;;;0.20;0.20;;;16.70;55.60;;;;;;5037357;28;20179;-75
2020/12/28 12:23:59;;;;;;;0.10;0.10;;;16.90;57.20;;;;;;5050362;28;20679;-75
2020/12/28 12:26:27;;;;;;;0.20;0.20;;;17.00;55.80;;;;;;5064815;28;20179;-75
2020/12/28 12:28:54;;;;;;;0.20;0.20;;;17.30;54.90;;;;;;5062180;28;20796;-75
2020/12/28 12:31:20;;;;;;;0.20;0.20;;;17.60;53.70;;;;;;5055869;28;20202;-75
2020/12/28 12:33:47;;;;;;;0.20;0.20;;;17.80;53.40;;;;;;5056887;28;20174;-76
2020/12/28 12:36:14;;;;;;;0.63;0.30;;;18.20;55.80;;;;;;5066295;28;20163;-75
2020/12/28 12:38:40;;;;;;;0.10;0.10;;;18.40;51.30;;;;;;5065252;28;20729;-74
2020/12/28 12:41:05;;;;;;;0.20;0.20;;;18.30;52.50;;;;;;5051922;28;20183;-74
2020/12/28 12:43:31;;;;;;;0.13;0.13;;;18.60;54.60;;;;;;5045223;28;20180;-75
2020/12/28 12:45:57;;;;;;;0.20;0.20;;;19.10;53.00;;;;;;5028421;28;20175;-75
2020/12/28 12:48:23;;;;;;;0.10;0.10;;;19.60;53.90;;;;;;5055819;28;20699;-74
2020/12/28 12:50:50;;;;;;;0.63;0.30;;;19.90;53.60;;;;;;5047954;28;20207;-77
2020/12/28 12:53:19;;;;;;;0.73;0.40;;;20.20;53.90;;;;;;5062738;28;20175;-76